sensor_id;sensor_type;location;lat;lon;timestamp;temperature;humidity
77100;SHT31;66602;48.922;2.414;2023-01-16T00:02:19;6.99;79.28
77100;SHT31;66602;48.922;2.414;2023-01-16T00:04:48;6.96;79.41
77100;SHT31;66602;48.922;2.414;2023-01-16T00:07:14;6.97;79.43
77100;SHT31;66602;48.922;2.414;2023-01-16T00:09:39;7.00;79.14
77100;SHT31;66602;48.922;2.414;2023-01-16T00:12:06;7.02;79.31
77100;SHT31;66602;48.922;2.414;2023-01-16T00:14:33;7.00;79.40
77100;SHT31;66602;48.922;2.414;2023-01-16T00:16:59;6.99;79.42
77100;SHT31;66602;48.922;2.414;2023-01-16T00:19:24;7.05;79.43
77100;SHT31;66602;48.922;2.414;2023-01-16T00:21:50;7.00;79.54
77100;SHT31;66602;48.922;2.414;2023-01-16T00:24:17;7.05;79.53
77100;SHT31;66602;48.922;2.414;2023-01-16T00:26:43;7.02;79.60
77100;SHT31;66602;48.922;2.414;2023-01-16T00:29:09;6.99;79.75
77100;SHT31;66602;48.922;2.414;2023-01-16T00:31:35;6.99;79.85
77100;SHT31;66602;48.922;2.414;2023-01-16T00:34:00;7.00;79.73
77100;SHT31;66602;48.922;2.414;2023-01-16T00:36:26;7.02;79.93
77100;SHT31;66602;48.922;2.414;2023-01-16T00:38:51;7.05;79.63
77100;SHT31;66602;48.922;2.414;2023-01-16T00:41:17;7.07;79.41
77100;SHT31;66602;48.922;2.414;2023-01-16T00:43:43;7.09;79.30
77100;SHT31;66602;48.922;2.414;2023-01-16T00:46:09;7.07;79.27
77100;SHT31;66602;48.922;2.414;2023-01-16T00:51:29;7.07;79.41
77100;SHT31;66602;48.922;2.414;2023-01-16T00:53:56;7.09;79.16
77100;SHT31;66602;48.922;2.414;2023-01-16T00:56:21;7.13;79.19
77100;SHT31;66602;48.922;2.414;2023-01-16T00:58:47;7.13;78.82
77100;SHT31;66602;48.922;2.414;2023-01-16T01:01:12;7.17;78.75
77100;SHT31;66602;48.922;2.414;2023-01-16T01:03:38;7.12;78.92
77100;SHT31;66602;48.922;2.414;2023-01-16T01:06:10;7.09;78.96
77100;SHT31;66602;48.922;2.414;2023-01-16T01:08:38;7.16;78.46
77100;SHT31;66602;48.922;2.414;2023-01-16T01:11:09;7.16;78.30
77100;SHT31;66602;48.922;2.414;2023-01-16T01:13:35;7.19;78.54
77100;SHT31;66602;48.922;2.414;2023-01-16T01:16:01;7.19;78.55
77100;SHT31;66602;48.922;2.414;2023-01-16T01:18:27;7.19;78.41
77100;SHT31;66602;48.922;2.414;2023-01-16T01:20:53;7.16;78.62
77100;SHT31;66602;48.922;2.414;2023-01-16T01:23:19;7.16;78.60
77100;SHT31;66602;48.922;2.414;2023-01-16T01:25:45;7.17;78.56
77100;SHT31;66602;48.922;2.414;2023-01-16T01:28:10;7.16;78.48
77100;SHT31;66602;48.922;2.414;2023-01-16T01:30:37;7.15;78.84
77100;SHT31;66602;48.922;2.414;2023-01-16T01:33:03;7.20;78.52
77100;SHT31;66602;48.922;2.414;2023-01-16T01:35:29;7.17;78.66
77100;SHT31;66602;48.922;2.414;2023-01-16T01:37:55;7.20;78.28
77100;SHT31;66602;48.922;2.414;2023-01-16T01:40:21;7.23;78.42
77100;SHT31;66602;48.922;2.414;2023-01-16T01:42:46;7.24;78.24
77100;SHT31;66602;48.922;2.414;2023-01-16T01:45:32;7.24;78.38
77100;SHT31;66602;48.922;2.414;2023-01-16T01:48:11;7.23;78.41
77100;SHT31;66602;48.922;2.414;2023-01-16T01:55:57;7.09;80.39
77100;SHT31;66602;48.922;2.414;2023-01-16T01:58:26;6.97;81.08
77100;SHT31;66602;48.922;2.414;2023-01-16T02:00:56;6.91;81.20
77100;SHT31;66602;48.922;2.414;2023-01-16T02:03:35;6.75;82.84
77100;SHT31;66602;48.922;2.414;2023-01-16T02:06:05;6.74;83.17
77100;SHT31;66602;48.922;2.414;2023-01-16T02:08:33;6.74;82.87
77100;SHT31;66602;48.922;2.414;2023-01-16T02:11:15;6.72;83.19
77100;SHT31;66602;48.922;2.414;2023-01-16T02:13:55;6.58;84.91
77100;SHT31;66602;48.922;2.414;2023-01-16T02:16:22;6.52;85.48
77100;SHT31;66602;48.922;2.414;2023-01-16T02:19:18;6.45;85.98
77100;SHT31;66602;48.922;2.414;2023-01-16T02:33:33;6.17;88.78
77100;SHT31;66602;48.922;2.414;2023-01-16T02:36:16;6.18;88.61
77100;SHT31;66602;48.922;2.414;2023-01-16T02:42:11;6.14;87.85
77100;SHT31;66602;48.922;2.414;2023-01-16T02:45:11;6.04;88.66
77100;SHT31;66602;48.922;2.414;2023-01-16T02:48:08;6.10;87.73
77100;SHT31;66602;48.922;2.414;2023-01-16T02:50:43;6.11;87.33
77100;SHT31;66602;48.922;2.414;2023-01-16T02:53:29;6.09;86.99
77100;SHT31;66602;48.922;2.414;2023-01-16T02:56:19;6.00;87.63
77100;SHT31;66602;48.922;2.414;2023-01-16T02:58:48;6.02;87.12
77100;SHT31;66602;48.922;2.414;2023-01-16T03:01:17;6.00;87.70
77100;SHT31;66602;48.922;2.414;2023-01-16T03:03:50;6.03;86.80
77100;SHT31;66602;48.922;2.414;2023-01-16T03:12:18;5.87;88.83
77100;SHT31;66602;48.922;2.414;2023-01-16T03:15:06;5.97;88.02
77100;SHT31;66602;48.922;2.414;2023-01-16T03:18:03;5.93;88.51
77100;SHT31;66602;48.922;2.414;2023-01-16T03:20:43;5.94;88.20
77100;SHT31;66602;48.922;2.414;2023-01-16T03:26:01;5.85;89.67
77100;SHT31;66602;48.922;2.414;2023-01-16T03:31:28;5.87;88.68
77100;SHT31;66602;48.922;2.414;2023-01-16T03:34:23;5.85;88.71
77100;SHT31;66602;48.922;2.414;2023-01-16T03:37:02;5.79;89.75
77100;SHT31;66602;48.922;2.414;2023-01-16T03:39:39;5.79;89.50
77100;SHT31;66602;48.922;2.414;2023-01-16T03:42:21;5.85;88.82
77100;SHT31;66602;48.922;2.414;2023-01-16T03:44:51;5.83;89.33
77100;SHT31;66602;48.922;2.414;2023-01-16T03:47:23;5.82;89.64
77100;SHT31;66602;48.922;2.414;2023-01-16T03:49:55;5.90;88.61
77100;SHT31;66602;48.922;2.414;2023-01-16T03:52:25;5.94;88.28
77100;SHT31;66602;48.922;2.414;2023-01-16T03:57:47;5.96;89.14
77100;SHT31;66602;48.922;2.414;2023-01-16T04:00:16;5.94;88.68
77100;SHT31;66602;48.922;2.414;2023-01-16T04:02:56;5.99;87.98
77100;SHT31;66602;48.922;2.414;2023-01-16T04:05:27;5.97;87.48
77100;SHT31;66602;48.922;2.414;2023-01-16T04:10:25;5.93;87.55
77100;SHT31;66602;48.922;2.414;2023-01-16T04:13:01;5.96;87.39
77100;SHT31;66602;48.922;2.414;2023-01-16T04:15:30;5.83;88.69
77100;SHT31;66602;48.922;2.414;2023-01-16T04:17:57;5.86;87.37
77100;SHT31;66602;48.922;2.414;2023-01-16T04:20:24;5.83;87.74
77100;SHT31;66602;48.922;2.414;2023-01-16T04:22:50;5.87;85.72
77100;SHT31;66602;48.922;2.414;2023-01-16T04:25:17;5.76;87.38
77100;SHT31;66602;48.922;2.414;2023-01-16T04:27:44;5.77;87.05
77100;SHT31;66602;48.922;2.414;2023-01-16T04:30:11;5.72;87.52
77100;SHT31;66602;48.922;2.414;2023-01-16T04:32:36;5.72;87.17
77100;SHT31;66602;48.922;2.414;2023-01-16T04:35:03;5.67;87.22
77100;SHT31;66602;48.922;2.414;2023-01-16T04:37:28;5.66;86.71
77100;SHT31;66602;48.922;2.414;2023-01-16T04:39:54;5.59;87.77
77100;SHT31;66602;48.922;2.414;2023-01-16T04:42:19;5.52;87.50
77100;SHT31;66602;48.922;2.414;2023-01-16T04:44:45;5.54;86.54
77100;SHT31;66602;48.922;2.414;2023-01-16T04:47:10;5.46;86.88
77100;SHT31;66602;48.922;2.414;2023-01-16T04:49:36;5.58;86.17
77100;SHT31;66602;48.922;2.414;2023-01-16T04:52:02;5.69;86.70
77100;SHT31;66602;48.922;2.414;2023-01-16T04:54:27;5.60;87.41
77100;SHT31;66602;48.922;2.414;2023-01-16T04:56:53;5.72;86.78
77100;SHT31;66602;48.922;2.414;2023-01-16T04:59:18;5.75;86.35
77100;SHT31;66602;48.922;2.414;2023-01-16T05:01:44;5.76;86.73
77100;SHT31;66602;48.922;2.414;2023-01-16T05:04:13;5.60;86.57
77100;SHT31;66602;48.922;2.414;2023-01-16T05:06:39;5.55;87.31
77100;SHT31;66602;48.922;2.414;2023-01-16T05:09:05;5.55;88.10
77100;SHT31;66602;48.922;2.414;2023-01-16T05:11:32;5.66;87.94
77100;SHT31;66602;48.922;2.414;2023-01-16T05:13:58;5.59;88.72
77100;SHT31;66602;48.922;2.414;2023-01-16T05:16:24;5.60;89.72
77100;SHT31;66602;48.922;2.414;2023-01-16T05:18:50;5.72;89.11
77100;SHT31;66602;48.922;2.414;2023-01-16T05:21:16;5.79;89.63
77100;SHT31;66602;48.922;2.414;2023-01-16T05:23:41;5.83;89.53
77100;SHT31;66602;48.922;2.414;2023-01-16T05:26:07;6.02;88.99
77100;SHT31;66602;48.922;2.414;2023-01-16T05:28:34;6.02;89.82
77100;SHT31;66602;48.922;2.414;2023-01-16T05:31:00;6.10;88.91
77100;SHT31;66602;48.922;2.414;2023-01-16T05:33:26;6.11;88.66
77100;SHT31;66602;48.922;2.414;2023-01-16T05:35:51;6.14;88.98
77100;SHT31;66602;48.922;2.414;2023-01-16T05:38:19;6.17;89.17
77100;SHT31;66602;48.922;2.414;2023-01-16T05:40:44;6.13;88.89
77100;SHT31;66602;48.922;2.414;2023-01-16T05:43:10;6.31;87.56
77100;SHT31;66602;48.922;2.414;2023-01-16T05:45:36;6.47;86.56
77100;SHT31;66602;48.922;2.414;2023-01-16T05:48:02;6.48;86.84
77100;SHT31;66602;48.922;2.414;2023-01-16T05:50:28;6.48;87.40
77100;SHT31;66602;48.922;2.414;2023-01-16T05:52:54;6.56;86.92
77100;SHT31;66602;48.922;2.414;2023-01-16T05:55:19;6.48;86.73
77100;SHT31;66602;48.922;2.414;2023-01-16T05:57:45;6.49;85.89
77100;SHT31;66602;48.922;2.414;2023-01-16T06:00:11;6.64;84.96
77100;SHT31;66602;48.922;2.414;2023-01-16T06:02:37;6.54;85.33
77100;SHT31;66602;48.922;2.414;2023-01-16T06:05:03;6.61;84.64
77100;SHT31;66602;48.922;2.414;2023-01-16T06:07:29;6.51;86.19
77100;SHT31;66602;48.922;2.414;2023-01-16T06:09:54;6.59;84.93
77100;SHT31;66602;48.922;2.414;2023-01-16T06:12:20;6.51;85.63
77100;SHT31;66602;48.922;2.414;2023-01-16T06:14:46;6.54;84.63
77100;SHT31;66602;48.922;2.414;2023-01-16T06:17:12;6.59;83.87
77100;SHT31;66602;48.922;2.414;2023-01-16T06:19:42;6.63;83.69
77100;SHT31;66602;48.922;2.414;2023-01-16T06:22:07;6.63;84.38
77100;SHT31;66602;48.922;2.414;2023-01-16T06:24:33;6.65;83.57
77100;SHT31;66602;48.922;2.414;2023-01-16T06:26:58;6.64;83.29
77100;SHT31;66602;48.922;2.414;2023-01-16T06:29:24;6.63;83.74
77100;SHT31;66602;48.922;2.414;2023-01-16T06:31:50;6.67;83.44
77100;SHT31;66602;48.922;2.414;2023-01-16T06:34:15;6.58;83.68
77100;SHT31;66602;48.922;2.414;2023-01-16T06:36:41;6.51;84.61
77100;SHT31;66602;48.922;2.414;2023-01-16T06:39:07;6.48;84.10
77100;SHT31;66602;48.922;2.414;2023-01-16T06:41:34;6.49;83.18
77100;SHT31;66602;48.922;2.414;2023-01-16T06:44:00;6.38;84.86
77100;SHT31;66602;48.922;2.414;2023-01-16T06:46:25;6.31;85.14
77100;SHT31;66602;48.922;2.414;2023-01-16T06:48:51;6.27;85.78
77100;SHT31;66602;48.922;2.414;2023-01-16T06:51:16;6.17;86.16
77100;SHT31;66602;48.922;2.414;2023-01-16T06:53:42;6.16;86.11
77100;SHT31;66602;48.922;2.414;2023-01-16T06:56:07;6.07;87.24
77100;SHT31;66602;48.922;2.414;2023-01-16T06:58:33;6.07;86.81
77100;SHT31;66602;48.922;2.414;2023-01-16T07:00:58;6.11;86.30
77100;SHT31;66602;48.922;2.414;2023-01-16T07:03:25;6.25;85.18
77100;SHT31;66602;48.922;2.414;2023-01-16T07:05:51;6.23;85.61
77100;SHT31;66602;48.922;2.414;2023-01-16T07:08:16;6.14;85.83
77100;SHT31;66602;48.922;2.414;2023-01-16T07:10:42;6.17;85.12
77100;SHT31;66602;48.922;2.414;2023-01-16T07:13:08;6.21;84.75
77100;SHT31;66602;48.922;2.414;2023-01-16T07:15:36;6.28;84.47
77100;SHT31;66602;48.922;2.414;2023-01-16T07:18:20;6.16;85.47
77100;SHT31;66602;48.922;2.414;2023-01-16T07:21:08;6.21;85.94
77100;SHT31;66602;48.922;2.414;2023-01-16T07:23:57;6.10;86.95
77100;SHT31;66602;48.922;2.414;2023-01-16T07:26:24;6.14;86.59
77100;SHT31;66602;48.922;2.414;2023-01-16T07:28:50;6.11;86.45
77100;SHT31;66602;48.922;2.414;2023-01-16T07:31:18;6.03;87.21
77100;SHT31;66602;48.922;2.414;2023-01-16T07:33:43;6.04;87.45
77100;SHT31;66602;48.922;2.414;2023-01-16T07:36:09;6.02;87.70
77100;SHT31;66602;48.922;2.414;2023-01-16T07:38:34;6.00;88.00
77100;SHT31;66602;48.922;2.414;2023-01-16T07:41:00;6.02;87.61
77100;SHT31;66602;48.922;2.414;2023-01-16T07:43:25;6.00;87.51
77100;SHT31;66602;48.922;2.414;2023-01-16T07:45:51;6.02;86.91
77100;SHT31;66602;48.922;2.414;2023-01-16T07:48:21;5.97;88.19
77100;SHT31;66602;48.922;2.414;2023-01-16T07:50:51;5.99;87.51
77100;SHT31;66602;48.922;2.414;2023-01-16T07:53:18;5.99;87.73
77100;SHT31;66602;48.922;2.414;2023-01-16T07:55:50;5.94;88.27
77100;SHT31;66602;48.922;2.414;2023-01-16T07:58:16;5.93;88.66
77100;SHT31;66602;48.922;2.414;2023-01-16T08:00:43;5.96;88.29
77100;SHT31;66602;48.922;2.414;2023-01-16T08:03:09;5.94;87.94
77100;SHT31;66602;48.922;2.414;2023-01-16T08:05:34;6.02;87.20
77100;SHT31;66602;48.922;2.414;2023-01-16T08:08:00;5.96;88.73
77100;SHT31;66602;48.922;2.414;2023-01-16T08:10:26;5.92;88.74
77100;SHT31;66602;48.922;2.414;2023-01-16T08:12:51;5.92;88.01
77100;SHT31;66602;48.922;2.414;2023-01-16T08:15:17;5.99;87.41
77100;SHT31;66602;48.922;2.414;2023-01-16T08:17:42;5.96;87.96
77100;SHT31;66602;48.922;2.414;2023-01-16T08:20:09;5.87;88.76
77100;SHT31;66602;48.922;2.414;2023-01-16T08:22:35;5.93;88.53
77100;SHT31;66602;48.922;2.414;2023-01-16T08:25:00;5.82;89.50
77100;SHT31;66602;48.922;2.414;2023-01-16T08:27:26;5.83;89.69
77100;SHT31;66602;48.922;2.414;2023-01-16T08:29:51;5.87;88.57
77100;SHT31;66602;48.922;2.414;2023-01-16T08:32:17;5.79;89.34
77100;SHT31;66602;48.922;2.414;2023-01-16T08:34:42;5.87;88.12
77100;SHT31;66602;48.922;2.414;2023-01-16T08:37:08;5.86;88.06
77100;SHT31;66602;48.922;2.414;2023-01-16T08:39:36;5.89;87.48
77100;SHT31;66602;48.922;2.414;2023-01-16T08:42:02;5.92;87.71
77100;SHT31;66602;48.922;2.414;2023-01-16T08:44:50;5.92;86.79
77100;SHT31;66602;48.922;2.414;2023-01-16T08:47:36;5.90;86.80
77100;SHT31;66602;48.922;2.414;2023-01-16T08:50:21;5.86;83.91
77100;SHT31;66602;48.922;2.414;2023-01-16T08:53:05;5.67;82.48
77100;SHT31;66602;48.922;2.414;2023-01-16T08:55:31;5.44;83.76
77100;SHT31;66602;48.922;2.414;2023-01-16T08:57:58;5.31;83.49
77100;SHT31;66602;48.922;2.414;2023-01-16T09:00:27;5.21;84.03
77100;SHT31;66602;48.922;2.414;2023-01-16T09:02:54;5.18;84.23
77100;SHT31;66602;48.922;2.414;2023-01-16T09:05:21;5.25;84.49
77100;SHT31;66602;48.922;2.414;2023-01-16T09:07:47;5.24;85.24
77100;SHT31;66602;48.922;2.414;2023-01-16T09:10:13;5.24;84.73
77100;SHT31;66602;48.922;2.414;2023-01-16T09:12:39;5.20;84.31
77100;SHT31;66602;48.922;2.414;2023-01-16T09:15:24;5.23;83.21
77100;SHT31;66602;48.922;2.414;2023-01-16T09:17:49;5.18;84.27
77100;SHT31;66602;48.922;2.414;2023-01-16T09:20:15;5.21;83.99
77100;SHT31;66602;48.922;2.414;2023-01-16T09:22:41;5.14;85.62
77100;SHT31;66602;48.922;2.414;2023-01-16T09:25:06;5.04;85.72
77100;SHT31;66602;48.922;2.414;2023-01-16T09:27:32;4.94;85.53
77100;SHT31;66602;48.922;2.414;2023-01-16T09:29:58;4.74;84.74
77100;SHT31;66602;48.922;2.414;2023-01-16T09:32:24;4.76;86.75
77100;SHT31;66602;48.922;2.414;2023-01-16T09:34:50;4.72;86.08
77100;SHT31;66602;48.922;2.414;2023-01-16T09:37:15;4.65;85.97
77100;SHT31;66602;48.922;2.414;2023-01-16T09:39:41;4.65;86.64
77100;SHT31;66602;48.922;2.414;2023-01-16T09:45:27;4.62;87.54
77100;SHT31;66602;48.922;2.414;2023-01-16T09:47:57;4.59;87.84
77100;SHT31;66602;48.922;2.414;2023-01-16T09:50:46;4.63;87.85
77100;SHT31;66602;48.922;2.414;2023-01-16T09:53:22;4.62;88.31
77100;SHT31;66602;48.922;2.414;2023-01-16T09:56:09;4.70;88.36
77100;SHT31;66602;48.922;2.414;2023-01-16T09:59:22;4.76;87.79
77100;SHT31;66602;48.922;2.414;2023-01-16T10:02:13;4.91;87.52
77100;SHT31;66602;48.922;2.414;2023-01-16T10:04:34;5.10;87.66
77100;SHT31;66602;48.922;2.414;2023-01-16T10:10:00;6.13;84.58
77100;SHT31;66602;48.922;2.414;2023-01-16T10:12:32;6.79;80.95
77100;SHT31;66602;48.922;2.414;2023-01-16T10:15:23;6.59;83.23
77100;SHT31;66602;48.922;2.414;2023-01-16T10:21:01;6.24;83.93
77100;SHT31;66602;48.922;2.414;2023-01-16T10:26:06;5.94;85.24
77100;SHT31;66602;48.922;2.414;2023-01-16T10:31:11;5.72;87.70
77100;SHT31;66602;48.922;2.414;2023-01-16T10:36:09;5.45;90.45
77100;SHT31;66602;48.922;2.414;2023-01-16T10:38:48;5.41;91.03
77100;SHT31;66602;48.922;2.414;2023-01-16T10:41:49;5.41;91.35
77100;SHT31;66602;48.922;2.414;2023-01-16T10:44:35;5.39;91.16
77100;SHT31;66602;48.922;2.414;2023-01-16T10:47:26;5.35;92.04
77100;SHT31;66602;48.922;2.414;2023-01-16T10:50:11;5.36;92.30
77100;SHT31;66602;48.922;2.414;2023-01-16T10:52:37;5.45;88.59
77100;SHT31;66602;48.922;2.414;2023-01-16T10:55:03;5.45;89.29
77100;SHT31;66602;48.922;2.414;2023-01-16T10:57:29;5.49;86.20
77100;SHT31;66602;48.922;2.414;2023-01-16T11:00:12;5.55;85.67
77100;SHT31;66602;48.922;2.414;2023-01-16T11:02:44;5.60;86.38
77100;SHT31;66602;48.922;2.414;2023-01-16T11:05:24;5.56;87.09
77100;SHT31;66602;48.922;2.414;2023-01-16T11:07:53;5.54;85.78
77100;SHT31;66602;48.922;2.414;2023-01-16T11:10:18;5.41;84.60
77100;SHT31;66602;48.922;2.414;2023-01-16T11:12:44;5.13;84.27
77100;SHT31;66602;48.922;2.414;2023-01-16T11:15:28;4.83;86.73
77100;SHT31;66602;48.922;2.414;2023-01-16T11:18:27;4.69;87.47
77100;SHT31;66602;48.922;2.414;2023-01-16T11:20:54;4.63;87.60
77100;SHT31;66602;48.922;2.414;2023-01-16T11:23:22;4.65;89.19
77100;SHT31;66602;48.922;2.414;2023-01-16T11:25:50;4.69;89.31
77100;SHT31;66602;48.922;2.414;2023-01-16T11:28:30;4.70;89.63
77100;SHT31;66602;48.922;2.414;2023-01-16T11:31:18;4.76;89.74
77100;SHT31;66602;48.922;2.414;2023-01-16T11:33:46;4.88;88.68
77100;SHT31;66602;48.922;2.414;2023-01-16T11:36:16;4.93;89.27
77100;SHT31;66602;48.922;2.414;2023-01-16T11:38:49;5.00;89.28
77100;SHT31;66602;48.922;2.414;2023-01-16T11:41:24;5.11;88.95
77100;SHT31;66602;48.922;2.414;2023-01-16T11:44:24;5.23;88.08
77100;SHT31;66602;48.922;2.414;2023-01-16T11:47:29;5.30;88.02
77100;SHT31;66602;48.922;2.414;2023-01-16T11:50:35;5.35;88.64
77100;SHT31;66602;48.922;2.414;2023-01-16T11:53:51;5.38;88.90
77100;SHT31;66602;48.922;2.414;2023-01-16T12:05:13;5.69;86.95
77100;SHT31;66602;48.922;2.414;2023-01-16T12:10:45;5.80;86.70
77100;SHT31;66602;48.922;2.414;2023-01-16T12:13:12;5.69;87.29
77100;SHT31;66602;48.922;2.414;2023-01-16T12:16:06;5.70;86.69
77100;SHT31;66602;48.922;2.414;2023-01-16T12:21:33;6.02;85.26
77100;SHT31;66602;48.922;2.414;2023-01-16T12:30:28;6.18;83.12
77100;SHT31;66602;48.922;2.414;2023-01-16T12:33:09;6.10;84.19
77100;SHT31;66602;48.922;2.414;2023-01-16T12:38:48;5.85;84.19
77100;SHT31;66602;48.922;2.414;2023-01-16T12:41:23;5.82;85.13
77100;SHT31;66602;48.922;2.414;2023-01-16T12:52:27;5.79;85.70
77100;SHT31;66602;48.922;2.414;2023-01-16T12:55:20;5.73;85.88
77100;SHT31;66602;48.922;2.414;2023-01-16T12:57:55;5.75;85.74
77100;SHT31;66602;48.922;2.414;2023-01-16T13:03:29;5.79;85.60
77100;SHT31;66602;48.922;2.414;2023-01-16T13:06:02;5.86;85.04
77100;SHT31;66602;48.922;2.414;2023-01-16T13:08:36;5.77;84.69
77100;SHT31;66602;48.922;2.414;2023-01-16T13:11:18;5.75;85.84
77100;SHT31;66602;48.922;2.414;2023-01-16T13:14:06;5.73;84.82
77100;SHT31;66602;48.922;2.414;2023-01-16T13:16:41;5.75;85.06
77100;SHT31;66602;48.922;2.414;2023-01-16T13:19:21;5.80;85.07
77100;SHT31;66602;48.922;2.414;2023-01-16T13:21:58;5.83;82.39
77100;SHT31;66602;48.922;2.414;2023-01-16T13:24:49;5.85;82.30
77100;SHT31;66602;48.922;2.414;2023-01-16T13:27:17;5.86;82.03
77100;SHT31;66602;48.922;2.414;2023-01-16T13:29:54;5.86;81.70
77100;SHT31;66602;48.922;2.414;2023-01-16T13:32:37;5.90;81.68
77100;SHT31;66602;48.922;2.414;2023-01-16T13:35:15;5.90;81.69
77100;SHT31;66602;48.922;2.414;2023-01-16T13:46:33;6.11;79.56
77100;SHT31;66602;48.922;2.414;2023-01-16T13:49:05;6.30;79.43
77100;SHT31;66602;48.922;2.414;2023-01-16T13:51:41;6.42;77.30
77100;SHT31;66602;48.922;2.414;2023-01-16T13:54:14;6.54;77.12
77100;SHT31;66602;48.922;2.414;2023-01-16T13:56:40;6.74;76.11
77100;SHT31;66602;48.922;2.414;2023-01-16T13:59:38;7.17;74.61
77100;SHT31;66602;48.922;2.414;2023-01-16T14:02:25;7.24;74.49
77100;SHT31;66602;48.922;2.414;2023-01-16T14:05:17;7.64;71.48
77100;SHT31;66602;48.922;2.414;2023-01-16T14:11:02;6.88;74.11
77100;SHT31;66602;48.922;2.414;2023-01-16T14:13:42;6.72;75.44
77100;SHT31;66602;48.922;2.414;2023-01-16T14:16:37;6.55;74.81
77100;SHT31;66602;48.922;2.414;2023-01-16T14:22:11;6.27;75.75
77100;SHT31;66602;48.922;2.414;2023-01-16T14:24:56;6.13;76.91
77100;SHT31;66602;48.922;2.414;2023-01-16T14:27:47;6.06;77.07
77100;SHT31;66602;48.922;2.414;2023-01-16T14:30:31;5.96;77.66
77100;SHT31;66602;48.922;2.414;2023-01-16T14:33:03;5.94;78.08
77100;SHT31;66602;48.922;2.414;2023-01-16T14:35:43;5.85;78.91
77100;SHT31;66602;48.922;2.414;2023-01-16T14:38:16;5.76;78.18
77100;SHT31;66602;48.922;2.414;2023-01-16T14:41:03;5.45;80.27
77100;SHT31;66602;48.922;2.414;2023-01-16T14:47:10;5.00;84.42
77100;SHT31;66602;48.922;2.414;2023-01-16T14:50:43;4.98;84.56
77100;SHT31;66602;48.922;2.414;2023-01-16T14:53:49;5.27;83.48
77100;SHT31;66602;48.922;2.414;2023-01-16T14:56:37;5.97;80.22
77100;SHT31;66602;48.922;2.414;2023-01-16T15:01:47;6.14;76.89
77100;SHT31;66602;48.922;2.414;2023-01-16T15:05:12;5.96;76.28
77100;SHT31;66602;48.922;2.414;2023-01-16T15:07:50;5.82;77.22
77100;SHT31;66602;48.922;2.414;2023-01-16T15:10:30;5.83;76.03
77100;SHT31;66602;48.922;2.414;2023-01-16T15:16:06;6.17;76.11
77100;SHT31;66602;48.922;2.414;2023-01-16T15:18:42;5.90;76.15
77100;SHT31;66602;48.922;2.414;2023-01-16T15:21:52;5.75;77.67
77100;SHT31;66602;48.922;2.414;2023-01-16T15:27:43;5.92;76.47
77100;SHT31;66602;48.922;2.414;2023-01-16T15:30:18;5.79;77.20
77100;SHT31;66602;48.922;2.414;2023-01-16T15:32:56;5.76;76.06
77100;SHT31;66602;48.922;2.414;2023-01-16T15:35:42;5.59;76.80
77100;SHT31;66602;48.922;2.414;2023-01-16T15:38:10;5.60;76.78
77100;SHT31;66602;48.922;2.414;2023-01-16T15:40:37;5.56;76.71
77100;SHT31;66602;48.922;2.414;2023-01-16T15:51:12;5.49;77.41
77100;SHT31;66602;48.922;2.414;2023-01-16T15:53:55;5.36;78.73
77100;SHT31;66602;48.922;2.414;2023-01-16T15:56:35;5.52;77.29
77100;SHT31;66602;48.922;2.414;2023-01-16T15:59:01;5.41;77.86
77100;SHT31;66602;48.922;2.414;2023-01-16T16:01:29;5.25;78.20
77100;SHT31;66602;48.922;2.414;2023-01-16T16:04:18;5.20;78.31
77100;SHT31;66602;48.922;2.414;2023-01-16T16:06:59;5.14;79.02
77100;SHT31;66602;48.922;2.414;2023-01-16T16:09:57;5.13;79.42
77100;SHT31;66602;48.922;2.414;2023-01-16T16:13:23;5.03;79.67
77100;SHT31;66602;48.922;2.414;2023-01-16T16:16:14;5.03;80.90
77100;SHT31;66602;48.922;2.414;2023-01-16T16:19:32;5.01;80.46
77100;SHT31;66602;48.922;2.414;2023-01-16T16:22:08;5.03;80.78
77100;SHT31;66602;48.922;2.414;2023-01-16T16:24:53;5.07;79.38
77100;SHT31;66602;48.922;2.414;2023-01-16T16:27:20;5.14;79.26
77100;SHT31;66602;48.922;2.414;2023-01-16T16:29:50;5.13;79.31
77100;SHT31;66602;48.922;2.414;2023-01-16T16:32:24;5.10;79.34
77100;SHT31;66602;48.922;2.414;2023-01-16T16:34:55;5.18;78.46
77100;SHT31;66602;48.922;2.414;2023-01-16T16:37:31;5.10;78.80
77100;SHT31;66602;48.922;2.414;2023-01-16T16:50:35;4.97;78.47
77100;SHT31;66602;48.922;2.414;2023-01-16T16:53:21;4.90;78.75
77100;SHT31;66602;48.922;2.414;2023-01-16T16:56:08;4.60;79.49
77100;SHT31;66602;48.922;2.414;2023-01-16T16:58:45;4.49;80.31
77100;SHT31;66602;48.922;2.414;2023-01-16T17:01:14;4.28;80.93
77100;SHT31;66602;48.922;2.414;2023-01-16T17:03:41;4.26;81.07
77100;SHT31;66602;48.922;2.414;2023-01-16T17:06:13;4.43;80.21
77100;SHT31;66602;48.922;2.414;2023-01-16T17:08:39;4.15;81.04
77100;SHT31;66602;48.922;2.414;2023-01-16T17:11:04;4.09;82.08
77100;SHT31;66602;48.922;2.414;2023-01-16T17:13:30;4.15;81.04
77100;SHT31;66602;48.922;2.414;2023-01-16T17:16:00;4.06;81.97
77100;SHT31;66602;48.922;2.414;2023-01-16T17:18:30;4.26;80.64
77100;SHT31;66602;48.922;2.414;2023-01-16T17:20:59;4.31;80.70
77100;SHT31;66602;48.922;2.414;2023-01-16T17:23:26;4.42;80.28
77100;SHT31;66602;48.922;2.414;2023-01-16T17:25:54;4.43;80.44
77100;SHT31;66602;48.922;2.414;2023-01-16T17:28:19;4.43;79.23
77100;SHT31;66602;48.922;2.414;2023-01-16T17:30:49;4.25;79.97
77100;SHT31;66602;48.922;2.414;2023-01-16T17:33:17;4.22;79.98
77100;SHT31;66602;48.922;2.414;2023-01-16T17:35:46;4.14;80.25
77100;SHT31;66602;48.922;2.414;2023-01-16T17:38:18;4.06;80.85
77100;SHT31;66602;48.922;2.414;2023-01-16T17:40:44;3.97;81.00
77100;SHT31;66602;48.922;2.414;2023-01-16T17:43:18;3.81;81.86
77100;SHT31;66602;48.922;2.414;2023-01-16T17:46:08;3.87;81.84
77100;SHT31;66602;48.922;2.414;2023-01-16T17:48:34;4.25;79.55
77100;SHT31;66602;48.922;2.414;2023-01-16T17:51:00;4.14;80.31
77100;SHT31;66602;48.922;2.414;2023-01-16T17:53:29;4.09;80.74
77100;SHT31;66602;48.922;2.414;2023-01-16T17:55:57;4.01;81.57
77100;SHT31;66602;48.922;2.414;2023-01-16T17:58:29;3.91;81.72
77100;SHT31;66602;48.922;2.414;2023-01-16T18:01:03;3.75;82.74
77100;SHT31;66602;48.922;2.414;2023-01-16T18:03:30;3.60;83.87
77100;SHT31;66602;48.922;2.414;2023-01-16T18:08:24;3.78;83.04
77100;SHT31;66602;48.922;2.414;2023-01-16T18:10:55;3.98;83.15
77100;SHT31;66602;48.922;2.414;2023-01-16T18:13:50;4.02;82.89
77100;SHT31;66602;48.922;2.414;2023-01-16T18:16:35;3.74;84.20
77100;SHT31;66602;48.922;2.414;2023-01-16T18:19:19;3.85;83.60
77100;SHT31;66602;48.922;2.414;2023-01-16T18:21:46;4.01;82.44
77100;SHT31;66602;48.922;2.414;2023-01-16T18:24:57;4.04;81.89
77100;SHT31;66602;48.922;2.414;2023-01-16T18:27:25;4.05;81.59
77100;SHT31;66602;48.922;2.414;2023-01-16T18:29:51;4.18;81.37
77100;SHT31;66602;48.922;2.414;2023-01-16T18:32:18;4.11;81.06
77100;SHT31;66602;48.922;2.414;2023-01-16T18:35:02;4.16;80.64
77100;SHT31;66602;48.922;2.414;2023-01-16T18:40:13;4.08;81.10
77100;SHT31;66602;48.922;2.414;2023-01-16T18:42:58;4.12;81.36
77100;SHT31;66602;48.922;2.414;2023-01-16T18:45:43;3.75;83.19
77100;SHT31;66602;48.922;2.414;2023-01-16T18:48:27;3.67;83.54